RAF Northholt

Airport
ICAO code: 
EGWU
IATA Code: 
NHT
Summary
ICAO Region: 
EUR
Territory: 
Location: 
Northolt, Middlesex, England,
Serving: 
Northolt
Elevation: 
124 ft
Coordinates: 
Aerial View: 
51° 33' 6" N, 0° 25' 6" W
Metar
Observation
EGWU 021020Z 33013KT 9999 FEW020 03/M02 Q1011 NOSIG RMK BLU BLU
Station
Northolt
Date/Time
2021-12-02 10:20:00
Wind direction
330°
Wind speed
13 kts
Lowest cloud amount
few clouds
Temperature
3°C
Dew point
-2°C
Humidity
69%
QNH
1011 hPa
Weather condition
n/a

Description

RAF Northolt is a military airport available to non scheduled civil traffic by prior arrangement.

Climatology

Temperate Marine climate/Oceanic climate (Köppen climate classification Cfb). Moderately cool summer and comparatively warm winter with a temperature range of only 14°C. Prevailing south-westerly winds from the Atlantic Ocean.

Runways

Designator Length Width Surface Rops
7/25 1690 46 ASP Yes/Yes
Airport map: 
Aerial View: 

Accidents and Serious Incidents at or in the vicinity of EGWU

SKYbrary Partners:

Safety knowledge contributed by: